Time;durP1;ratioP1;P1;durP2;ratioP2;P2;SDS_P1;SDS_P2;PMS_P1;PMS_P2;Temp;Humidity;BMP_temperature;BMP_pressure;BME280_temperature;BME280_humidity;BME280_pressure;Samples;Min_cycle;Max_cycle;Signal;HPM_P1;HPM_P2
2022/01/20 00:02:03;;;;;;;16.58;5.25;;;;;;;2.29;100.00;102392.56;5091253;28;20024;-68
2022/01/20 00:04:43;;;;;;;22.95;3.15;;;;;;;2.29;100.00;102382.88;5090995;28;20248;-68
2022/01/20 00:23:15;;;;;;;9.23;2.70;;;;;;;2.59;100.00;102382.56;5091168;28;20050;-68
2022/01/20 00:25:50;;;;;;;16.73;3.30;;;;;;;2.51;100.00;102369.06;5090908;28;20422;-68
2022/01/20 00:26:30;;;;;;;21.15;4.75;;;;;;;2.54;100.00;102387.31;5090562;28;20040;-68
2022/01/20 00:28:59;;;;;;;17.15;4.45;;;;;;;2.50;100.00;102396.38;5090809;28;20089;-68
2022/01/20 00:31:48;;;;;;;14.23;4.85;;;;;;;2.48;100.00;102398.25;5090502;28;20494;-68
2022/01/20 00:34:29;;;;;;;15.27;4.20;;;;;;;2.37;100.00;102391.09;5090599;28;20047;-69
2022/01/20 00:39:39;;;;;;;16.73;2.10;;;;;;;2.44;100.00;102388.91;5089646;28;20047;-68
2022/01/20 00:42:04;;;;;;;19.48;4.28;;;;;;;2.45;100.00;102409.00;5090438;28;20456;-68
2022/01/20 00:44:30;;;;;;;10.73;3.22;;;;;;;2.45;100.00;102409.00;5089004;28;20498;-68
2022/01/20 00:46:55;;;;;;;24.80;4.30;;;;;;;2.45;100.00;102397.63;5090394;28;20122;-68
2022/01/20 00:49:21;;;;;;;16.55;4.13;;;;;;;2.42;100.00;102393.41;5090017;28;20047;-68
2022/01/20 00:51:46;;;;;;;10.85;3.38;;;;;;;2.42;100.00;102390.78;5090336;28;20123;-68
2022/01/20 00:54:12;;;;;;;14.63;2.63;;;;;;;2.46;100.00;102396.69;5088845;28;20066;-68
2022/01/20 00:56:37;;;;;;;13.18;4.07;;;;;;;2.48;100.00;102381.63;5089901;28;20032;-68
2022/01/20 00:59:03;;;;;;;14.68;4.45;;;;;;;2.52;100.00;102388.38;5090275;28;20539;-68
2022/01/20 01:01:28;;;;;;;14.07;4.03;;;;;;;2.58;100.00;102393.19;5090022;28;20024;-67
2022/01/20 01:03:53;;;;;;;9.10;2.10;;;;;;;2.68;100.00;102398.69;5089925;28;20020;-68
2022/01/20 01:08:44;;;;;;;18.38;3.60;;;;;;;2.75;100.00;102400.78;5089710;28;20445;-70
2022/01/20 01:11:09;;;;;;;12.73;2.65;;;;;;;2.79;100.00;102393.50;5089780;28;20078;-69
2022/01/20 01:13:35;;;;;;;14.80;2.70;;;;;;;2.79;100.00;102402.25;5089923;28;20013;-69
2022/01/20 01:16:01;;;;;;;10.38;1.98;;;;;;;2.89;100.00;102412.16;5089830;28;20032;-70
2022/01/20 01:21:16;;;;;;;12.55;3.60;;;;;;;2.99;100.00;102423.72;5089927;28;20453;-68
2022/01/20 01:23:44;;;;;;;12.73;2.63;;;;;;;3.02;100.00;102415.59;5089306;28;20024;-68
2022/01/20 01:26:16;;;;;;;10.77;3.70;;;;;;;3.01;100.00;102412.13;5089704;28;20544;-67
2022/01/20 01:28:42;;;;;;;11.45;2.63;;;;;;;2.98;100.00;102414.13;5089677;28;20077;-68
2022/01/20 01:31:31;;;;;;;8.63;1.95;;;;;;;2.96;100.00;102421.28;5089616;28;20677;-67
2022/01/20 01:34:01;;;;;;;7.03;2.08;;;;;;;2.94;100.00;102410.88;5089242;28;20113;-67
2022/01/20 01:36:32;;;;;;;9.80;2.20;;;;;;;2.95;100.00;102420.44;5089817;28;20027;-67
2022/01/20 01:38:57;;;;;;;14.32;2.40;;;;;;;2.95;100.00;102415.19;5089799;28;20046;-68
2022/01/20 01:41:35;;;;;;;12.98;2.42;;;;;;;2.90;100.00;102417.28;5089357;28;20055;-67
2022/01/20 01:44:06;;;;;;;15.90;4.15;;;;;;;2.77;100.00;102409.41;5089416;28;20073;-67
2022/01/20 01:46:32;;;;;;;6.95;2.88;;;;;;;2.75;100.00;102413.09;5088166;28;20460;-68
2022/01/20 01:48:57;;;;;;;5.07;2.08;;;;;;;2.67;100.00;102408.34;5089246;28;20038;-67
2022/01/20 01:51:24;;;;;;;10.00;2.80;;;;;;;2.62;100.00;102403.44;5088574;28;20458;-67
2022/01/20 01:53:49;;;;;;;10.77;2.58;;;;;;;2.61;100.00;102407.00;5089278;28;20129;-67
2022/01/20 01:56:14;;;;;;;18.00;3.22;;;;;;;2.63;100.00;102412.16;5089410;28;20086;-67
2022/01/20 01:58:40;;;;;;;14.07;3.30;;;;;;;2.60;100.00;102413.22;5088616;28;20032;-68
2022/01/20 02:01:05;;;;;;;15.50;3.80;;;;;;;2.56;100.00;102414.38;5089088;28;20193;-68
2022/01/20 02:03:33;;;;;;;11.07;3.25;;;;;;;2.57;100.00;102423.97;5089142;28;20028;-67
2022/01/20 02:08:38;;;;;;;17.10;3.72;;;;;;;2.53;100.00;102419.84;5089235;28;20040;-68
2022/01/20 02:19:17;;;;;;;8.40;2.10;;;;;;;2.34;100.00;102427.34;5089452;28;20086;-67
2022/01/20 02:21:50;;;;;;;8.30;2.20;;;;;;;2.34;100.00;102425.53;5090665;28;20039;-69
2022/01/20 02:24:16;;;;;;;13.25;2.65;;;;;;;2.32;100.00;102427.41;5092673;28;20056;-67
2022/01/20 02:26:41;;;;;;;19.60;4.75;;;;;;;2.37;100.00;102430.59;5093144;28;20093;-67
2022/01/20 02:29:07;;;;;;;11.38;3.42;;;;;;;2.39;100.00;102430.50;5093246;28;20038;-67
2022/01/20 02:31:32;;;;;;;19.05;4.13;;;;;;;2.43;100.00;102429.31;5092803;28;20028;-68
2022/01/20 02:33:58;;;;;;;14.00;2.53;;;;;;;2.47;100.00;102422.91;5092819;28;20028;-67
2022/01/20 02:36:24;;;;;;;8.45;2.63;;;;;;;2.56;100.00;102422.25;5092727;28;20024;-67
2022/01/20 02:38:57;;;;;;;16.27;3.00;;;;;;;2.67;100.00;102418.88;5091876;28;20096;-67
2022/01/20 02:46:51;;;;;;;6.80;1.88;;;;;;;2.99;100.00;102398.22;5092967;28;20046;-67
2022/01/20 02:49:18;;;;;;;8.18;2.90;;;;;;;3.07;100.00;102400.31;5092619;28;20032;-67
2022/01/20 02:51:51;;;;;;;10.52;2.20;;;;;;;3.05;100.00;102396.94;5091304;28;20032;-67
2022/01/20 02:54:18;;;;;;;4.88;2.38;;;;;;;3.00;100.00;102388.50;5092592;28;20023;-67
2022/01/20 02:56:43;;;;;;;13.48;2.33;;;;;;;3.00;100.00;102397.25;5092309;28;20431;-67
2022/01/20 02:59:09;;;;;;;8.40;2.30;;;;;;;2.97;100.00;102399.28;5091828;28;20062;-67
2022/01/20 03:01:34;;;;;;;10.05;1.58;;;;;;;2.93;100.00;102396.00;5091670;28;20032;-67
2022/01/20 03:04:02;;;;;;;9.50;2.05;;;;;;;2.93;100.00;102397.78;5092235;28;20031;-67
2022/01/20 03:06:27;;;;;;;7.03;2.67;;;;;;;2.92;100.00;102404.84;5092059;28;20052;-70
2022/01/20 03:08:52;;;;;;;11.55;1.98;;;;;;;2.89;100.00;102394.53;5092314;28;20361;-67
2022/01/20 03:11:18;;;;;;;8.07;2.05;;;;;;;2.88;99.94;102408.66;5092266;28;20052;-70
2022/01/20 03:13:43;;;;;;;14.63;2.40;;;;;;;2.83;100.00;102401.09;5092125;28;20028;-68
2022/01/20 03:16:09;;;;;;;15.13;2.92;;;;;;;2.85;100.00;102393.91;5090970;28;20058;-67
2022/01/20 03:18:34;;;;;;;15.00;2.58;;;;;;;2.86;100.00;102400.03;5092385;28;20112;-67
2022/01/20 03:21:00;;;;;;;19.38;5.35;;;;;;;2.87;100.00;102393.81;5092182;28;20368;-67
2022/01/20 03:23:25;;;;;;;8.02;1.70;;;;;;;2.88;100.00;102387.56;5092033;28;20185;-67
2022/01/20 03:25:50;;;;;;;7.35;1.92;;;;;;;2.92;100.00;102386.41;5089995;28;20032;-67
2022/01/20 03:28:16;;;;;;;8.85;1.67;;;;;;;2.90;100.00;102377.75;5091654;28;20028;-67
2022/01/20 03:30:41;;;;;;;10.80;2.15;;;;;;;2.99;100.00;102389.47;5091947;28;20035;-67
2022/01/20 03:33:07;;;;;;;13.43;2.20;;;;;;;3.01;100.00;102398.94;5091756;28;20016;-67
2022/01/20 03:35:32;;;;;;;7.22;1.40;;;;;;;3.03;100.00;102390.91;5091776;28;20033;-70
2022/01/20 03:37:58;;;;;;;10.35;3.95;;;;;;;3.07;100.00;102402.94;5091762;28;20032;-67
2022/01/20 03:40:24;;;;;;;6.93;1.90;;;;;;;3.09;100.00;102406.28;5091658;28;20046;-68
2022/01/20 03:42:50;;;;;;;8.52;1.90;;;;;;;3.13;100.00;102399.03;5091560;28;20074;-67
2022/01/20 03:45:15;;;;;;;10.98;3.35;;;;;;;3.11;100.00;102401.75;5091464;28;20501;-68
2022/01/20 03:47:42;;;;;;;9.05;2.72;;;;;;;3.07;100.00;102398.50;5091462;28;20024;-67
2022/01/20 03:50:59;;;;;;;6.03;1.90;;;;;;;3.06;100.00;102398.59;5090084;28;20505;-67
2022/01/20 03:52:53;;;;;;;9.55;2.28;;;;;;;3.01;100.00;102412.13;5091284;28;20052;-67
2022/01/20 03:55:18;;;;;;;8.43;1.63;;;;;;;2.98;100.00;102398.31;5091397;28;20024;-67
2022/01/20 03:57:44;;;;;;;6.47;1.40;;;;;;;2.97;100.00;102401.91;5091438;28;20028;-67
2022/01/20 04:00:10;;;;;;;10.82;1.83;;;;;;;2.94;100.00;102395.06;5091244;28;20055;-67
2022/01/20 04:02:35;;;;;;;12.63;1.90;;;;;;;2.93;100.00;102401.25;5090953;28;20094;-67
2022/01/20 04:05:01;;;;;;;10.60;2.28;;;;;;;2.89;100.00;102405.09;5090909;28;20064;-67
2022/01/20 04:07:26;;;;;;;13.07;3.58;;;;;;;2.84;100.00;102404.56;5090799;28;20067;-70
2022/01/20 04:09:51;;;;;;;9.38;1.85;;;;;;;2.80;100.00;102406.56;5089743;28;20031;-67
2022/01/20 04:12:17;;;;;;;6.50;1.92;;;;;;;2.80;100.00;102410.97;5089640;28;20131;-67
2022/01/20 04:14:47;;;;;;;7.25;2.22;;;;;;;2.74;100.00;102396.44;5091118;28;20055;-67
2022/01/20 04:17:17;;;;;;;10.75;3.45;;;;;;;2.78;100.00;102411.09;5091017;28;20123;-69
2022/01/20 04:19:43;;;;;;;7.03;1.63;;;;;;;2.78;100.00;102403.19;5090547;28;20506;-67
2022/01/20 04:22:08;;;;;;;9.57;3.13;;;;;;;2.84;100.00;102418.56;5090040;28;20058;-67
2022/01/20 04:24:34;;;;;;;11.75;2.22;;;;;;;2.88;100.00;102411.28;5090445;28;20028;-70
2022/01/20 04:27:00;;;;;;;11.23;1.85;;;;;;;2.91;100.00;102420.75;5090449;28;20070;-70
2022/01/20 04:29:26;;;;;;;8.77;1.55;;;;;;;2.93;100.00;102403.06;5090852;28;20158;-67
2022/01/20 04:31:51;;;;;;;10.77;3.00;;;;;;;3.04;100.00;102418.97;5090695;28;20114;-67
2022/01/20 04:34:17;;;;;;;12.98;1.83;;;;;;;3.07;100.00;102418.75;5090585;28;20484;-67
2022/01/20 04:36:45;;;;;;;9.77;2.95;;;;;;;3.12;100.00;102432.44;5090509;28;20032;-67
2022/01/20 04:39:16;;;;;;;16.73;3.45;;;;;;;3.20;99.67;102440.66;5090344;28;20028;-67
2022/01/20 04:41:42;;;;;;;18.52;2.13;;;;;;;3.19;99.90;102435.47;5088898;28;20027;-67
2022/01/20 04:44:12;;;;;;;10.50;1.67;;;;;;;3.23;99.76;102453.63;5089984;28;20828;-67
2022/01/20 04:46:56;;;;;;;11.82;2.53;;;;;;;3.25;99.81;102466.69;5069720;28;20384;-68
2022/01/20 04:57:37;;;;;;;8.80;1.83;;;;;;;2.89;100.00;102446.41;5090311;28;20448;-67
2022/01/20 05:00:04;;;;;;;5.90;1.38;;;;;;;2.78;100.00;102455.91;5090184;28;20027;-67
2022/01/20 05:02:29;;;;;;;7.78;1.60;;;;;;;2.76;100.00;102464.84;5090040;28;20031;-68
2022/01/20 05:04:55;;;;;;;13.88;2.42;;;;;;;2.74;100.00;102472.00;5089516;28;20039;-68
2022/01/20 05:07:24;;;;;;;9.95;2.45;;;;;;;2.73;100.00;102473.81;5090056;28;20052;-67
2022/01/20 05:09:52;;;;;;;8.57;2.55;;;;;;;2.73;100.00;102471.16;5090203;28;20032;-67
2022/01/20 05:12:23;;;;;;;8.95;2.22;;;;;;;2.68;100.00;102462.75;5090155;28;20035;-67
2022/01/20 05:14:48;;;;;;;8.70;2.45;;;;;;;2.72;100.00;102466.00;5089708;28;20058;-67
2022/01/20 05:17:14;;;;;;;12.50;3.05;;;;;;;2.76;100.00;102480.66;5090038;28;20063;-67
2022/01/20 05:19:39;;;;;;;12.82;2.75;;;;;;;2.78;100.00;102489.31;5089805;28;20038;-67
2022/01/20 05:22:04;;;;;;;11.98;3.33;;;;;;;2.83;100.00;102497.75;5088418;28;20043;-67
2022/01/20 05:24:30;;;;;;;11.20;2.33;;;;;;;2.85;100.00;102499.28;5089681;28;20931;-67
2022/01/20 05:26:59;;;;;;;15.07;3.63;;;;;;;2.88;100.00;102492.13;5089797;28;20035;-67
2022/01/20 05:29:25;;;;;;;10.57;3.72;;;;;;;2.90;100.00;102496.34;5087905;28;20540;-67
2022/01/20 05:31:51;;;;;;;14.55;2.38;;;;;;;2.88;100.00;102497.41;5089582;28;20077;-70
2022/01/20 05:34:17;;;;;;;7.32;1.58;;;;;;;2.96;100.00;102508.25;5089722;28;20035;-70
2022/01/20 05:36:44;;;;;;;4.45;1.60;;;;;;;3.01;100.00;102511.41;5089439;28;20039;-69
2022/01/20 05:39:09;;;;;;;6.55;1.67;;;;;;;3.02;100.00;102527.13;5089471;28;20032;-68
2022/01/20 05:41:35;;;;;;;8.73;2.22;;;;;;;3.01;100.00;102538.63;5089450;28;20031;-69
2022/01/20 05:44:01;;;;;;;8.95;2.85;;;;;;;2.97;100.00;102558.22;5089245;28;20173;-69
2022/01/20 05:46:34;;;;;;;9.32;3.17;;;;;;;2.88;100.00;102561.47;5089319;28;20614;-68
2022/01/20 05:49:08;;;;;;;9.60;2.95;;;;;;;2.74;100.00;102553.69;5089270;28;20043;-68
2022/01/20 05:51:38;;;;;;;10.98;2.80;;;;;;;2.58;99.51;102546.81;5089423;28;20024;-68
2022/01/20 05:54:04;;;;;;;7.63;2.03;;;;;;;2.48;100.00;102540.47;5089153;28;20027;-69
2022/01/20 05:56:29;;;;;;;12.25;4.45;;;;;;;2.42;99.97;102546.13;5088284;28;20028;-68
2022/01/20 05:58:55;;;;;;;16.80;2.78;;;;;;;2.25;100.00;102530.59;5089322;28;20040;-69
2022/01/20 06:01:20;;;;;;;10.85;2.50;;;;;;;2.34;100.00;102551.06;5089256;28;20054;-69
2022/01/20 06:03:46;;;;;;;12.05;4.45;;;;;;;2.34;100.00;102551.06;5087948;28;20493;-69
2022/01/20 06:06:12;;;;;;;17.50;2.92;;;;;;;2.33;100.00;102552.88;5088888;28;20093;-69
2022/01/20 06:08:39;;;;;;;16.48;3.22;;;;;;;2.30;100.00;102546.94;5088699;28;20105;-69
2022/01/20 06:11:04;;;;;;;15.13;3.10;;;;;;;2.34;100.00;102544.00;5085077;28;20119;-69
2022/01/20 06:13:30;;;;;;;8.75;2.00;;;;;;;2.39;100.00;102556.88;5069802;28;20519;-69
2022/01/20 06:15:56;;;;;;;14.82;3.03;;;;;;;2.40;100.00;102567.28;5069778;28;20491;-69
2022/01/20 06:18:22;;;;;;;14.85;2.80;;;;;;;2.39;100.00;102562.97;5069723;28;20033;-69
2022/01/20 06:20:48;;;;;;;18.23;2.72;;;;;;;2.42;99.72;102567.22;5069827;28;20059;-69
2022/01/20 06:23:14;;;;;;;8.35;1.95;;;;;;;2.43;100.00;102576.78;5088716;28;20567;-68
2022/01/20 06:25:41;;;;;;;15.43;3.17;;;;;;;2.45;99.77;102580.16;5088836;28;20521;-69
2022/01/20 06:28:07;;;;;;;14.32;4.00;;;;;;;2.45;99.45;102584.59;5088874;28;20028;-69
2022/01/20 06:30:33;;;;;;;5.65;1.98;;;;;;;2.50;99.77;102585.13;5088435;28;20478;-69
2022/01/20 06:32:59;;;;;;;10.15;2.53;;;;;;;2.50;99.44;102583.34;5088984;28;20471;-69
2022/01/20 06:35:24;;;;;;;20.13;4.28;;;;;;;2.48;99.52;102576.47;5088723;28;20052;-69
2022/01/20 06:37:50;;;;;;;19.58;3.40;;;;;;;2.51;99.45;102590.28;5089063;28;20067;-69
2022/01/20 06:40:16;;;;;;;9.73;2.97;;;;;;;2.54;98.97;102597.13;5087544;28;20035;-69
2022/01/20 06:42:42;;;;;;;14.52;2.97;;;;;;;2.56;98.82;102597.88;5088948;28;20365;-69
2022/01/20 06:45:10;;;;;;;12.23;3.58;;;;;;;2.56;98.21;102590.81;5088816;28;20069;-69
2022/01/20 06:47:36;;;;;;;19.38;5.10;;;;;;;2.59;97.96;102602.94;5088835;28;20027;-69
2022/01/20 06:50:02;;;;;;;18.73;3.92;;;;;;;2.62;97.55;102600.13;5088728;28;20028;-69
2022/01/20 06:52:28;;;;;;;13.98;3.40;;;;;;;2.64;97.51;102603.50;5088734;28;20028;-69
2022/01/20 06:54:54;;;;;;;12.77;2.55;;;;;;;2.64;96.75;102612.22;5088806;28;20507;-69
2022/01/20 06:57:20;;;;;;;12.80;2.00;;;;;;;2.66;95.74;102622.69;5088525;28;20210;-69
2022/01/20 06:59:46;;;;;;;14.48;3.10;;;;;;;2.67;95.60;102620.88;5088747;28;20028;-69
2022/01/20 07:02:11;;;;;;;14.90;4.60;;;;;;;2.68;94.94;102633.13;5086949;28;20039;-69
2022/01/20 07:04:38;;;;;;;8.13;3.58;;;;;;;2.69;94.07;102642.72;5088327;28;20111;-68
2022/01/20 07:07:04;;;;;;;11.45;2.70;;;;;;;2.69;93.37;102643.53;5088321;28;20055;-69
2022/01/20 07:09:29;;;;;;;13.77;3.17;;;;;;;2.62;93.36;102639.66;5091303;28;20032;-69
2022/01/20 07:11:55;;;;;;;36.33;4.28;;;;;;;2.70;92.96;102647.03;5091727;28;20085;-69
2022/01/20 07:14:20;;;;;;;13.35;2.85;;;;;;;2.64;91.33;102635.94;5092386;28;20182;-69
2022/01/20 07:16:48;;;;;;;5.13;2.08;;;;;;;2.69;90.93;102640.06;5092223;28;20028;-69
2022/01/20 07:19:13;;;;;;;16.27;3.17;;;;;;;2.69;89.07;102632.16;5092057;28;20036;-69
2022/01/20 07:21:39;;;;;;;11.88;1.50;;;;;;;2.66;89.80;102633.22;5092108;28;20028;-69
2022/01/20 07:24:04;;;;;;;10.75;3.00;;;;;;;2.68;89.92;102654.19;5091965;28;20441;-69
2022/01/20 07:26:30;;;;;;;18.38;4.10;;;;;;;2.59;88.65;102645.97;5091821;28;20445;-69
2022/01/20 07:28:55;;;;;;;8.15;2.60;;;;;;;2.65;88.57;102660.53;5091778;28;20110;-69
2022/01/20 07:31:22;;;;;;;15.25;3.28;;;;;;;2.67;89.08;102655.13;5091449;28;20038;-69
2022/01/20 07:33:48;;;;;;;11.65;2.65;;;;;;;2.67;88.40;102660.41;5091261;28;20423;-69
2022/01/20 07:36:14;;;;;;;22.70;3.05;;;;;;;2.68;88.06;102662.94;5091652;28;20034;-69
2022/01/20 07:38:39;;;;;;;17.60;2.55;;;;;;;2.68;86.64;102670.00;5091658;28;20024;-69
2022/01/20 07:41:05;;;;;;;9.48;2.20;;;;;;;2.69;86.69;102671.69;5091520;28;20063;-69
2022/01/20 07:43:30;;;;;;;11.80;2.03;;;;;;;2.69;85.96;102684.84;5091521;28;20028;-69
2022/01/20 07:45:55;;;;;;;14.43;2.65;;;;;;;2.68;85.28;102667.38;5091776;28;20463;-69
2022/01/20 07:48:21;;;;;;;9.05;2.08;;;;;;;2.69;84.16;102672.53;5091637;28;20462;-70
2022/01/20 07:50:47;;;;;;;17.88;5.05;;;;;;;2.60;84.13;102658.19;5090062;28;20030;-73
2022/01/20 07:53:12;;;;;;;18.38;3.30;;;;;;;2.73;83.24;102681.09;5091336;28;20031;-69
2022/01/20 07:55:38;;;;;;;8.50;2.35;;;;;;;2.75;82.97;102692.34;5091234;28;20051;-68
2022/01/20 07:58:04;;;;;;;5.93;1.23;;;;;;;2.73;83.62;102684.56;5091393;28;20159;-69
2022/01/20 08:00:30;;;;;;;6.07;1.75;;;;;;;2.72;84.37;102688.13;5090873;28;20587;-69
2022/01/20 08:02:55;;;;;;;11.88;1.85;;;;;;;2.73;83.50;102691.63;5091152;28;20391;-69
2022/01/20 08:05:21;;;;;;;6.85;1.63;;;;;;;2.74;83.52;102703.84;5073288;28;20055;-69
2022/01/20 08:07:46;;;;;;;6.38;1.63;;;;;;;2.71;83.33;102702.25;5090857;28;20043;-68
2022/01/20 08:10:12;;;;;;;9.18;2.65;;;;;;;2.75;83.02;102702.88;5090832;28;20020;-69
2022/01/20 08:12:38;;;;;;;12.07;2.85;;;;;;;2.76;83.76;102709.88;5091070;28;20123;-69
2022/01/20 08:15:04;;;;;;;7.97;1.75;;;;;;;2.75;83.12;102722.19;5091070;28;20390;-68
2022/01/20 08:17:30;;;;;;;8.00;2.25;;;;;;;2.72;82.55;102709.19;5090956;28;20032;-69
2022/01/20 08:19:55;;;;;;;14.40;3.95;;;;;;;2.77;82.49;102720.28;5090032;28;20027;-68
2022/01/20 08:22:21;;;;;;;10.75;2.65;;;;;;;2.78;82.41;102726.44;5090695;28;20063;-68
2022/01/20 08:24:51;;;;;;;7.13;1.65;;;;;;;2.77;82.50;102722.09;5090711;28;20032;-68
2022/01/20 08:27:18;;;;;;;9.53;3.73;;;;;;;2.74;82.64;102715.22;5090838;28;20039;-69
2022/01/20 08:29:43;;;;;;;9.10;1.63;;;;;;;2.83;82.60;102737.53;5090477;28;20031;-68
2022/01/20 08:32:08;;;;;;;13.48;1.90;;;;;;;2.86;82.11;102747.84;5090609;28;20441;-69
2022/01/20 08:34:34;;;;;;;6.45;2.10;;;;;;;2.84;83.08;102734.75;5090112;28;20418;-68
2022/01/20 08:36:59;;;;;;;10.05;2.67;;;;;;;2.90;83.82;102746.69;5090521;28;20040;-68
2022/01/20 08:42:03;;;;;;;6.30;3.00;;;;;;;2.91;82.99;102745.78;5090735;28;20047;-69
2022/01/20 08:44:29;;;;;;;11.48;1.90;;;;;;;2.93;81.33;102746.50;5090412;28;20028;-69
2022/01/20 08:46:57;;;;;;;33.55;4.25;;;;;;;2.96;81.79;102753.34;5090423;28;20490;-70
2022/01/20 08:49:23;;;;;;;7.65;2.67;;;;;;;2.97;80.56;102758.53;5090121;28;20474;-69
2022/01/20 08:51:49;;;;;;;8.45;2.15;;;;;;;3.01;79.49;102759.16;5090322;28;20028;-69
2022/01/20 08:54:14;;;;;;;6.53;2.97;;;;;;;3.04;79.45;102756.38;5090340;28;20056;-69
2022/01/20 08:56:41;;;;;;;9.18;1.98;;;;;;;3.03;79.84;102763.41;5090261;28;20421;-69
2022/01/20 08:59:07;;;;;;;16.98;3.13;;;;;;;3.07;80.32;102767.53;5090245;28;20034;-69
2022/01/20 09:01:34;;;;;;;10.30;3.28;;;;;;;3.10;80.63;102773.56;5090065;28;20523;-69
2022/01/20 09:03:59;;;;;;;8.57;1.88;;;;;;;3.11;80.77;102775.25;5089951;28;20118;-69
2022/01/20 09:06:24;;;;;;;6.47;1.80;;;;;;;3.11;79.97;102775.25;5090214;28;20123;-69
2022/01/20 09:08:50;;;;;;;10.18;1.48;;;;;;;3.12;80.30;102772.50;5089902;28;20047;-69
2022/01/20 09:11:22;;;;;;;12.23;2.83;;;;;;;3.13;80.54;102771.56;5089660;28;20165;-69
2022/01/20 09:16:32;;;;;;;8.95;1.88;;;;;;;3.18;82.42;102773.91;5090197;28;20055;-69
2022/01/20 09:18:57;;;;;;;10.32;2.22;;;;;;;3.17;81.95;102778.34;5089827;28;20027;-69
2022/01/20 09:21:23;;;;;;;5.63;1.15;;;;;;;3.20;81.06;102777.28;5090016;28;20531;-69
2022/01/20 09:23:50;;;;;;;8.45;1.42;;;;;;;3.20;80.21;102779.94;5070380;28;20133;-69
2022/01/20 09:26:15;;;;;;;12.35;1.98;;;;;;;3.22;80.58;102778.88;5089807;28;20386;-69
2022/01/20 09:28:42;;;;;;;7.80;1.73;;;;;;;3.23;80.95;102775.28;5089589;28;20035;-69
2022/01/20 09:31:08;;;;;;;7.03;2.03;;;;;;;3.27;80.71;102787.34;5089625;28;20028;-69
2022/01/20 09:33:34;;;;;;;10.23;2.75;;;;;;;3.28;79.65;102767.06;5088391;28;20032;-69
2022/01/20 09:36:00;;;;;;;6.85;2.63;;;;;;;3.27;80.06;102779.44;5088177;28;20987;-69
2022/01/20 09:38:27;;;;;;;10.57;1.90;;;;;;;3.25;80.48;102781.31;5089531;28;20027;-69
2022/01/20 09:40:53;;;;;;;10.35;1.35;;;;;;;3.28;80.10;102775.00;5089510;28;20059;-69
2022/01/20 09:43:19;;;;;;;6.60;1.45;;;;;;;3.31;80.15;102771.31;5075210;28;20126;-69
2022/01/20 09:45:49;;;;;;;10.45;2.10;;;;;;;3.39;80.38;102775.13;5087356;28;20028;-69
2022/01/20 09:48:16;;;;;;;13.40;2.75;;;;;;;3.47;80.74;102782.53;5089403;28;20024;-69
2022/01/20 09:50:41;;;;;;;6.75;2.38;;;;;;;3.40;80.83;102792.63;5089335;28;20031;-69
2022/01/20 09:53:07;;;;;;;7.25;1.73;;;;;;;3.29;81.72;102795.13;5089337;28;20617;-69
2022/01/20 09:55:34;;;;;;;13.63;3.08;;;;;;;3.17;82.65;102802.06;5089428;28;20028;-69
2022/01/20 09:58:00;;;;;;;18.17;2.90;;;;;;;3.22;81.76;102820.19;5089233;28;20034;-69
2022/01/20 10:00:25;;;;;;;3.50;1.40;;;;;;;3.30;81.08;102823.19;5089444;28;20391;-69
2022/01/20 10:02:58;;;;;;;8.13;1.58;;;;;;;3.38;81.96;102818.28;5089559;28;20031;-69
2022/01/20 10:05:45;;;;;;;14.23;2.88;;;;;;;3.43;81.53;102818.81;5089075;28;20063;-69
2022/01/20 10:08:13;;;;;;;7.03;1.67;;;;;;;3.48;80.85;102819.34;5089140;28;20059;-68
2022/01/20 10:10:41;;;;;;;7.32;1.85;;;;;;;3.49;81.23;102818.41;5089264;28;20089;-69
2022/01/20 10:13:08;;;;;;;7.97;2.00;;;;;;;3.62;81.61;102828.16;5088826;28;20074;-70
2022/01/20 10:15:35;;;;;;;10.27;3.10;;;;;;;3.65;80.24;102827.94;5089216;28;20455;-69
2022/01/20 10:18:11;;;;;;;9.65;2.53;;;;;;;3.71;79.75;102835.44;5089127;28;20530;-69
2022/01/20 10:20:50;;;;;;;8.40;2.63;;;;;;;3.68;79.54;102825.09;5089236;28;20120;-69
2022/01/20 10:23:27;;;;;;;11.55;1.95;;;;;;;3.83;79.62;102841.69;5069872;28;20112;-70
2022/01/20 10:26:03;;;;;;;7.22;1.65;;;;;;;3.99;79.24;102850.25;5088900;28;20173;-69
2022/01/20 10:28:28;;;;;;;10.13;2.42;;;;;;;4.23;78.56;102849.53;5089048;28;20028;-69
2022/01/20 10:30:55;;;;;;;16.60;3.25;;;;;;;4.41;76.40;102850.06;5087577;28;20032;-68
2022/01/20 10:33:21;;;;;;;11.38;3.22;;;;;;;4.43;75.04;102858.72;5088985;28;20034;-68
2022/01/20 10:35:46;;;;;;;6.80;2.10;;;;;;;4.36;75.92;102851.22;5088755;28;20028;-68
2022/01/20 10:38:16;;;;;;;11.07;2.05;;;;;;;4.27;74.84;102858.91;5088677;28;20028;-68
2022/01/20 10:40:54;;;;;;;7.13;1.95;;;;;;;4.22;75.01;102861.91;5087706;28;20055;-68
2022/01/20 10:43:22;;;;;;;11.20;1.80;;;;;;;4.21;74.54;102865.47;5091573;28;20027;-68
2022/01/20 10:45:48;;;;;;;10.70;1.55;;;;;;;4.26;74.89;102868.66;5092761;28;20030;-68
2022/01/20 10:48:18;;;;;;;6.13;2.33;;;;;;;4.32;74.14;102864.72;5091772;28;20020;-68
2022/01/20 10:50:44;;;;;;;6.68;1.35;;;;;;;4.31;74.17;102868.34;5092879;28;20126;-68
2022/01/20 10:53:17;;;;;;;13.70;2.17;;;;;;;4.35;73.71;102880.41;5092658;28;20450;-68
2022/01/20 10:55:43;;;;;;;16.38;2.97;;;;;;;4.30;73.83;102875.41;5091400;28;20399;-68
2022/01/20 10:58:20;;;;;;;9.05;2.17;;;;;;;4.32;73.50;102875.28;5092608;28;20028;-68
2022/01/20 11:00:50;;;;;;;15.25;2.60;;;;;;;4.20;72.41;102865.59;5092786;28;20083;-67
2022/01/20 11:03:16;;;;;;;12.75;2.28;;;;;;;3.97;73.47;102894.41;5087713;28;20020;-68
2022/01/20 11:05:48;;;;;;;8.77;2.58;;;;;;;3.76;76.21;102888.75;5091663;28;20036;-68
2022/01/20 11:08:14;;;;;;;10.90;2.28;;;;;;;3.64;76.56;102898.34;5090759;28;20076;-68
2022/01/20 11:10:41;;;;;;;33.25;3.00;;;;;;;3.54;77.15;102883.19;5092513;28;20082;-68
2022/01/20 11:13:07;;;;;;;2.90;0.98;;;;;;;3.46;77.48;102887.19;5090929;28;20459;-67
2022/01/20 11:15:33;;;;;;;8.70;1.92;;;;;;;3.49;77.07;102884.34;5092071;28;20085;-68
2022/01/20 11:17:58;;;;;;;12.48;2.70;;;;;;;3.61;77.43;102884.47;5092207;28;20027;-68
2022/01/20 11:20:27;;;;;;;11.85;2.63;;;;;;;3.78;76.34;102883.38;5092186;28;20078;-68
2022/01/20 11:22:57;;;;;;;8.05;1.63;;;;;;;3.91;76.11;102887.72;5092238;28;20028;-68
2022/01/20 11:25:26;;;;;;;8.05;1.80;;;;;;;4.00;76.06;102886.25;5092041;28;20020;-68
2022/01/20 11:28:02;;;;;;;14.32;2.20;;;;;;;4.11;76.12;102870.56;5092141;28;20123;-68
2022/01/20 11:30:29;;;;;;;7.00;1.40;;;;;;;4.16;73.98;102868.44;5092049;28;20024;-68
2022/01/20 11:33:12;;;;;;;7.05;1.42;;;;;;;4.10;72.50;102874.13;5091866;28;20101;-67
2022/01/20 11:35:45;;;;;;;6.63;1.58;;;;;;;4.00;71.57;102853.75;5091759;28;20032;-67
2022/01/20 11:38:13;;;;;;;14.02;1.58;;;;;;;3.99;72.49;102859.97;5091892;28;20097;-68
2022/01/20 11:41:13;;;;;;;14.40;3.67;;;;;;;4.09;72.68;102855.78;5091416;28;20120;-68
2022/01/20 11:43:44;;;;;;;10.90;2.88;;;;;;;4.23;72.31;102855.66;5061220;28;20051;-68
2022/01/20 11:46:13;;;;;;;12.73;2.63;;;;;;;4.44;71.00;102853.31;5091401;28;20037;-68
2022/01/20 11:49:06;;;;;;;5.97;1.40;;;;;;;4.62;72.53;102848.56;5091670;28;20032;-68
2022/01/20 11:51:43;;;;;;;13.98;2.50;;;;;;;4.74;72.53;102845.06;5091625;28;20382;-68
2022/01/20 11:54:09;;;;;;;10.07;2.45;;;;;;;4.75;69.29;102849.38;5090293;28;20031;-68
2022/01/20 11:56:40;;;;;;;10.18;2.10;;;;;;;4.71;69.15;102839.13;5091144;28;20043;-67
2022/01/20 11:59:08;;;;;;;9.53;1.37;;;;;;;4.73;69.73;102851.28;5071505;28;20032;-68
2022/01/20 12:01:52;;;;;;;5.88;1.60;;;;;;;4.66;69.00;102836.78;5071671;28;20032;-67
2022/01/20 12:04:40;;;;;;;12.25;1.65;;;;;;;4.66;71.13;102855.28;5091090;28;20020;-68
2022/01/20 12:07:06;;;;;;;5.15;2.67;;;;;;;4.61;69.34;102847.72;5090694;28;20446;-68
2022/01/20 12:09:40;;;;;;;10.00;2.22;;;;;;;4.59;68.69;102846.97;5091023;28;20067;-67
2022/01/20 12:12:22;;;;;;;7.80;2.53;;;;;;;4.59;67.82;102840.84;5091200;28;20529;-68
2022/01/20 12:14:48;;;;;;;8.30;1.88;;;;;;;4.62;69.22;102843.28;5090660;28;20035;-68
2022/01/20 12:17:17;;;;;;;20.60;2.13;;;;;;;4.63;68.35;102825.59;5090430;28;20391;-68
2022/01/20 12:19:52;;;;;;;8.50;1.40;;;;;;;4.78;66.36;102837.75;5090917;28;20070;-68